Time;durP1;ratioP1;P1;durP2;ratioP2;P2;SDS_P1;SDS_P2;PMS_P1;PMS_P2;Temp;Humidity;BMP_temperature;BMP_pressure;BME280_temperature;BME280_humidity;BME280_pressure;Samples;Min_cycle;Max_cycle;Signal;HPM_P1;HPM_P2
2023/07/19 00:00:38;;;;;;;0.00;0.00;;;15.40;99.90;;;;;;5036041;28;20033;-83
2023/07/19 00:03:04;;;;;;;0.00;0.00;;;;;;;;;;5030553;28;20021;-85
2023/07/19 00:05:30;;;;;;;0.00;0.00;;;15.30;99.90;;;;;;5040794;28;20028;-83
2023/07/19 00:07:56;;;;;;;0.00;0.00;;;15.30;99.90;;;;;;5030177;28;20905;-84
2023/07/19 00:10:22;;;;;;;0.00;0.00;;;;;;;;;;5035561;28;20116;-84
2023/07/19 00:12:47;;;;;;;0.00;0.00;;;15.50;99.90;;;;;;5031232;28;20502;-84
2023/07/19 00:15:14;;;;;;;0.00;0.00;;;;;;;;;;5039391;28;20013;-85
2023/07/19 00:17:41;;;;;;;0.00;0.00;;;15.50;99.90;;;;;;5033727;28;20558;-85
2023/07/19 00:20:07;;;;;;;0.00;0.00;;;15.50;99.90;;;;;;5032734;28;20414;-83
2023/07/19 00:22:33;;;;;;;0.00;0.00;;;15.40;99.90;;;;;;5029117;28;20029;-83
2023/07/19 00:24:59;;;;;;;0.00;0.00;;;;;;;;;;5028968;28;20026;-84
2023/07/19 00:27:24;;;;;;;0.00;0.00;;;15.40;99.90;;;;;;5029510;28;20025;-85
2023/07/19 00:29:50;;;;;;;0.00;0.00;;;;;;;;;;5034130;28;20022;-83
2023/07/19 00:32:17;;;;;;;0.00;0.00;;;;;;;;;;5031726;28;20029;-83
2023/07/19 00:34:43;;;;;;;0.00;0.00;;;15.30;99.90;;;;;;5031235;28;20033;-85
2023/07/19 00:37:08;;;;;;;0.00;0.00;;;15.30;99.90;;;;;;5030180;28;20382;-84
2023/07/19 00:39:34;;;;;;;0.00;0.00;;;;;;;;;;5036887;28;20029;-84
2023/07/19 00:42:01;;;;;;;0.00;0.00;;;;;;;;;;5026571;28;20030;-84
2023/07/19 00:44:26;;;;;;;0.00;0.00;;;15.20;99.90;;;;;;5032130;28;20029;-84
2023/07/19 00:46:53;;;;;;;0.00;0.00;;;;;;;;;;5032193;28;20393;-84
2023/07/19 00:49:18;;;;;;;0.00;0.00;;;15.20;99.90;;;;;;5030999;28;20026;-84
2023/07/19 00:51:44;;;;;;;0.00;0.00;;;;;;;;;;5031522;28;20036;-84
2023/07/19 00:54:10;;;;;;;0.00;0.00;;;;;;;;;;5033204;28;20398;-83
2023/07/19 00:56:36;;;;;;;0.00;0.00;;;15.20;99.90;;;;;;5033440;28;20524;-82
2023/07/19 00:59:03;;;;;;;0.00;0.00;;;15.00;99.90;;;;;;5024076;28;20481;-84
2023/07/19 01:01:29;;;;;;;0.00;0.00;;;14.90;99.90;;;;;;5025387;28;20494;-84
2023/07/19 01:03:55;;;;;;;0.00;0.00;;;;;;;;;;5031973;28;20074;-84
2023/07/19 01:06:21;;;;;;;0.00;0.00;;;;;;;;;;5031427;28;20057;-84
2023/07/19 01:08:47;;;;;;;0.00;0.00;;;;;;;;;;5030233;28;20036;-84
2023/07/19 01:11:13;;;;;;;0.00;0.00;;;;;;;;;;5026411;28;20500;-86
2023/07/19 01:13:50;;;;;;;0.00;0.00;;;15.00;99.90;;;;;;5032403;28;20025;-85
2023/07/19 01:16:16;;;;;;;0.00;0.00;;;15.00;99.90;;;;;;5025853;28;20022;-85
2023/07/19 01:18:41;;;;;;;0.00;0.00;;;14.80;99.90;;;;;;5031117;28;20029;-85
2023/07/19 01:21:07;;;;;;;0.00;0.00;;;;;;;;;;5032042;28;20028;-85
2023/07/19 01:23:33;;;;;;;0.00;0.00;;;14.50;99.90;;;;;;5031965;28;20633;-85
2023/07/19 01:25:59;;;;;;;0.00;0.00;;;;;;;;;;5031907;28;20095;-85
2023/07/19 01:28:24;;;;;;;0.00;0.00;;;14.60;99.90;;;;;;5030682;28;20033;-85
2023/07/19 01:30:50;;;;;;;0.00;0.00;;;;;;;;;;5026801;28;20433;-86
2023/07/19 01:33:16;;;;;;;0.00;0.00;;;;;;;;;;5022155;28;20037;-84
2023/07/19 01:35:42;;;;;;;0.00;0.00;;;;;;;;;;5028014;28;20034;-84
2023/07/19 01:38:08;;;;;;;0.00;0.00;;;;;;;;;;5036133;28;20022;-85
2023/07/19 01:40:33;;;;;;;0.00;0.00;;;14.70;99.90;;;;;;5032103;28;20032;-86
2023/07/19 01:42:59;;;;;;;0.00;0.00;;;;;;;;;;5038640;28;20025;-86
2023/07/19 01:45:25;;;;;;;0.00;0.00;;;;;;;;;;5030120;28;20100;-84
2023/07/19 01:47:51;;;;;;;0.00;0.00;;;;;;;;;;5032938;28;20030;-85
2023/07/19 01:50:17;;;;;;;0.00;0.00;;;14.50;99.90;;;;;;5031948;28;20041;-86
2023/07/19 01:52:43;;;;;;;0.00;0.00;;;;;;;;;;5028973;28;20025;-86
2023/07/19 01:55:09;;;;;;;0.00;0.00;;;;;;;;;;5033564;28;20105;-85
2023/07/19 01:57:34;;;;;;;0.00;0.00;;;14.50;99.90;;;;;;5032882;28;20029;-85
2023/07/19 02:00:00;;;;;;;0.00;0.00;;;;;;;;;;5035367;28;20041;-86
2023/07/19 02:02:26;;;;;;;0.00;0.00;;;14.40;99.90;;;;;;5025209;28;20018;-86
2023/07/19 02:04:52;;;;;;;0.00;0.00;;;;;;;;;;5034523;28;20036;-85
2023/07/19 02:07:18;;;;;;;0.00;0.00;;;;;;;;;;5027896;28;20021;-86
2023/07/19 02:09:44;;;;;;;0.00;0.00;;;;;;;;;;5022425;28;20414;-86
2023/07/19 02:12:09;;;;;;;0.00;0.00;;;;;;;;;;5029684;28;20052;-85
2023/07/19 02:14:36;;;;;;;0.00;0.00;;;14.30;99.90;;;;;;5028720;28;22809;-85
2023/07/19 02:17:02;;;;;;;0.00;0.00;;;14.30;99.90;;;;;;5028602;28;20478;-86
2023/07/19 02:19:28;;;;;;;0.00;0.00;;;;;;;;;;5028230;28;20037;-85
2023/07/19 02:21:54;;;;;;;0.03;0.03;;;;;;;;;;5027419;28;20048;-85
2023/07/19 02:24:20;;;;;;;0.00;0.00;;;;;;;;;;5022158;28;20448;-84
2023/07/19 02:26:45;;;;;;;0.00;0.00;;;14.30;99.90;;;;;;5034899;28;20472;-86
2023/07/19 02:29:11;;;;;;;0.00;0.00;;;;;;;;;;5026977;28;20049;-85
2023/07/19 02:31:37;;;;;;;0.00;0.00;;;;;;;;;;5021397;28;20120;-85
2023/07/19 02:34:06;;;;;;;0.00;0.00;;;14.10;99.90;;;;;;5025449;28;20028;-85
2023/07/19 02:36:34;;;;;;;0.00;0.00;;;;;;;;;;5024281;28;20030;-84
2023/07/19 02:39:00;;;;;;;0.00;0.00;;;14.10;99.90;;;;;;5023245;28;20026;-85
2023/07/19 02:41:26;;;;;;;0.00;0.00;;;14.10;99.90;;;;;;5031142;28;20017;-85
2023/07/19 02:43:52;;;;;;;0.00;0.00;;;;;;;;;;5028725;28;20052;-86
2023/07/19 02:46:17;;;;;;;0.00;0.00;;;14.10;99.90;;;;;;5020496;28;20025;-85
2023/07/19 02:48:43;;;;;;;0.00;0.00;;;;;;;;;;5030319;28;20029;-84
2023/07/19 02:51:09;;;;;;;0.00;0.00;;;;;;;;;;5033638;28;20025;-84
2023/07/19 02:53:36;;;;;;;0.00;0.00;;;14.20;99.90;;;;;;5029757;28;20083;-85
2023/07/19 02:56:02;;;;;;;0.00;0.00;;;14.30;99.90;;;;;;5030188;28;20017;-85
2023/07/19 02:58:28;;;;;;;0.00;0.00;;;;;;;;;;5027985;28;20552;-84
2023/07/19 03:00:54;;;;;;;0.00;0.00;;;14.40;99.90;;;;;;5036086;28;20017;-86
2023/07/19 03:03:20;;;;;;;0.00;0.00;;;14.50;99.90;;;;;;5031948;28;20116;-86
2023/07/19 03:05:46;;;;;;;0.00;0.00;;;;;;;;;;5032135;28;20044;-83
2023/07/19 03:08:12;;;;;;;0.00;0.00;;;;;;;;;;5038002;28;20036;-84
2023/07/19 03:10:39;;;;;;;0.00;0.00;;;14.70;99.90;;;;;;5034420;28;20068;-86
2023/07/19 03:13:04;;;;;;;0.00;0.00;;;14.70;99.90;;;;;;5031997;28;20497;-85
2023/07/19 03:15:33;;;;;;;0.00;0.00;;;14.80;99.90;;;;;;5031003;28;20029;-85
2023/07/19 03:18:00;;;;;;;0.00;0.00;;;14.80;99.90;;;;;;5031445;28;20025;-86
2023/07/19 03:20:27;;;;;;;0.00;0.00;;;14.70;99.90;;;;;;5013993;28;20034;-86
2023/07/19 03:22:56;;;;;;;0.00;0.00;;;14.70;99.90;;;;;;5033768;28;20028;-85
2023/07/19 03:25:23;;;;;;;0.00;0.00;;;14.70;99.90;;;;;;5041104;28;20038;-85
2023/07/19 03:27:49;;;;;;;0.00;0.00;;;14.70;99.90;;;;;;5032076;28;20025;-85
2023/07/19 03:30:15;;;;;;;0.00;0.00;;;;;;;;;;5032090;28;20036;-85
2023/07/19 03:32:41;;;;;;;0.00;0.00;;;14.70;99.90;;;;;;5031810;28;20029;-85
2023/07/19 03:35:07;;;;;;;0.00;0.00;;;14.70;99.90;;;;;;5035059;28;20505;-85
2023/07/19 03:37:34;;;;;;;0.00;0.00;;;14.70;99.90;;;;;;5035232;28;20072;-85
2023/07/19 03:40:00;;;;;;;0.00;0.00;;;14.70;99.90;;;;;;5029774;28;20029;-85
2023/07/19 03:42:26;;;;;;;0.00;0.00;;;;;;;;;;5033634;28;20036;-86
2023/07/19 03:44:52;;;;;;;0.00;0.00;;;;;;;;;;5032107;28;20436;-85
2023/07/19 03:47:18;;;;;;;0.00;0.00;;;14.80;99.90;;;;;;5033290;28;20030;-85
2023/07/19 03:49:43;;;;;;;0.00;0.00;;;14.90;99.90;;;;;;5030739;28;20036;-86
2023/07/19 03:52:09;;;;;;;0.00;0.00;;;14.90;99.90;;;;;;5028946;28;20052;-85
2023/07/19 03:54:35;;;;;;;0.00;0.00;;;;;;;;;;5041572;28;20417;-86
2023/07/19 03:57:01;;;;;;;0.00;0.00;;;;;;;;;;5040093;28;20021;-86
2023/07/19 03:59:27;;;;;;;0.00;0.00;;;;;;;;;;5029189;28;20045;-86
2023/07/19 04:01:52;;;;;;;0.00;0.00;;;14.90;99.90;;;;;;5029416;28;20029;-86
2023/07/19 04:04:18;;;;;;;0.00;0.00;;;14.80;99.90;;;;;;5028729;28;20030;-86
2023/07/19 04:06:44;;;;;;;0.00;0.00;;;;;;;;;;5028349;28;20025;-85
2023/07/19 04:09:09;;;;;;;0.00;0.00;;;14.40;99.90;;;;;;5031580;28;20388;-85
2023/07/19 04:11:35;;;;;;;0.00;0.00;;;14.40;99.90;;;;;;5032370;28;20036;-86
2023/07/19 04:14:00;;;;;;;0.00;0.00;;;14.40;99.90;;;;;;5030374;28;20120;-86
2023/07/19 04:16:26;;;;;;;0.00;0.00;;;;;;;;;;5030558;28;20104;-86
2023/07/19 04:18:52;;;;;;;0.00;0.00;;;;;;;;;;5032033;28;20113;-85
2023/07/19 04:21:19;;;;;;;0.00;0.00;;;;;;;;;;5026449;28;20018;-85
2023/07/19 04:23:44;;;;;;;0.00;0.00;;;14.40;99.90;;;;;;5028361;28;20394;-85
2023/07/19 04:26:10;;;;;;;0.00;0.00;;;14.50;99.90;;;;;;5030195;28;20040;-86
2023/07/19 04:28:36;;;;;;;0.00;0.00;;;;;;;;;;5024709;28;20045;-86
2023/07/19 04:31:02;;;;;;;0.00;0.00;;;;;;;;;;5025930;28;20037;-84
2023/07/19 04:33:27;;;;;;;0.00;0.00;;;14.70;99.90;;;;;;5026756;28;20862;-84
2023/07/19 04:35:53;;;;;;;0.00;0.00;;;;;;;;;;5023982;28;20079;-87
2023/07/19 04:38:19;;;;;;;0.00;0.00;;;15.00;99.90;;;;;;5031137;28;20025;-84
2023/07/19 04:40:45;;;;;;;0.00;0.00;;;;;;;;;;5024377;28;20037;-85
2023/07/19 04:43:10;;;;;;;0.00;0.00;;;15.10;99.90;;;;;;5027316;28;20039;-84
2023/07/19 04:45:36;;;;;;;0.00;0.00;;;;;;;;;;5027645;28;20030;-87
2023/07/19 04:48:03;;;;;;;0.00;0.00;;;15.30;99.90;;;;;;5033754;28;20033;-86
2023/07/19 04:50:30;;;;;;;0.00;0.00;;;15.30;99.90;;;;;;5031002;28;20605;-85
2023/07/19 04:52:56;;;;;;;0.00;0.00;;;;;;;;;;5031999;28;20108;-85
2023/07/19 04:55:22;;;;;;;0.00;0.00;;;;;;;;;;5029436;28;20031;-87
2023/07/19 04:57:48;;;;;;;0.00;0.00;;;15.60;99.90;;;;;;5046948;28;20025;-85
2023/07/19 05:00:14;;;;;;;0.00;0.00;;;15.70;99.90;;;;;;5037767;28;20071;-86
2023/07/19 05:02:43;;;;;;;0.00;0.00;;;15.90;99.90;;;;;;5033401;28;20053;-86
2023/07/19 05:05:09;;;;;;;0.00;0.00;;;15.80;99.90;;;;;;5026145;28;20024;-85
2023/07/19 05:07:36;;;;;;;0.00;0.00;;;15.90;99.90;;;;;;5045102;28;20479;-86
2023/07/19 05:10:03;;;;;;;0.00;0.00;;;16.00;99.90;;;;;;5028594;28;20022;-85
2023/07/19 05:12:30;;;;;;;0.00;0.00;;;16.10;99.90;;;;;;5031941;28;20056;-86
2023/07/19 05:14:56;;;;;;;0.00;0.00;;;16.00;99.90;;;;;;5034624;28;20474;-86
2023/07/19 05:17:22;;;;;;;0.00;0.00;;;16.20;99.90;;;;;;5033294;28;20109;-85
2023/07/19 05:19:48;;;;;;;0.00;0.00;;;;;;;;;;5028292;28;20121;-85
2023/07/19 05:22:14;;;;;;;0.00;0.00;;;;;;;;;;5030158;28;20021;-86
2023/07/19 05:24:40;;;;;;;0.00;0.00;;;16.50;99.90;;;;;;5031054;28;20048;-85
2023/07/19 05:27:06;;;;;;;0.00;0.00;;;16.60;99.90;;;;;;5030879;28;20022;-86
2023/07/19 05:29:32;;;;;;;0.00;0.00;;;16.60;99.90;;;;;;5032719;28;20482;-86
2023/07/19 05:31:58;;;;;;;0.00;0.00;;;16.70;99.90;;;;;;5031199;28;20471;-85
2023/07/19 05:34:23;;;;;;;0.00;0.00;;;16.70;99.90;;;;;;5029547;28;20032;-85
2023/07/19 05:36:49;;;;;;;0.00;0.00;;;16.70;99.90;;;;;;5032457;28;20022;-86
2023/07/19 05:39:15;;;;;;;0.00;0.00;;;;;;;;;;5027032;28;20041;-87
2023/07/19 05:41:41;;;;;;;0.00;0.00;;;;;;;;;;5035011;28;20112;-86
2023/07/19 05:44:07;;;;;;;0.00;0.00;;;;;;;;;;5036980;28;20025;-86
2023/07/19 05:46:36;;;;;;;0.00;0.00;;;17.40;99.90;;;;;;5025234;28;20021;-85
2023/07/19 05:49:02;;;;;;;0.00;0.00;;;17.30;99.90;;;;;;5029793;28;20022;-86
2023/07/19 05:51:28;;;;;;;0.00;0.00;;;17.20;99.90;;;;;;5029490;28;20030;-86
2023/07/19 05:53:54;;;;;;;0.00;0.00;;;;;;;;;;5028697;28;20116;-86
2023/07/19 05:56:20;;;;;;;0.00;0.00;;;17.30;99.90;;;;;;5025525;28;20027;-87
2023/07/19 05:58:46;;;;;;;0.00;0.00;;;17.40;99.90;;;;;;5024974;28;20049;-86
2023/07/19 06:01:14;;;;;;;0.00;0.00;;;17.50;99.90;;;;;;5027412;28;20067;-85
2023/07/19 06:03:40;;;;;;;0.00;0.00;;;;;;;;;;5027235;28;20021;-88
2023/07/19 06:06:06;;;;;;;0.00;0.00;;;;;;;;;;5028977;28;20663;-87
2023/07/19 06:08:32;;;;;;;0.00;0.00;;;;;;;;;;5030892;28;20029;-88
2023/07/19 06:10:59;;;;;;;0.00;0.00;;;17.80;99.90;;;;;;5032088;28;20110;-88
2023/07/19 06:13:24;;;;;;;0.00;0.00;;;17.90;99.90;;;;;;5031000;28;20696;-87
2023/07/19 06:15:50;;;;;;;0.00;0.00;;;18.00;99.90;;;;;;5025786;28;20029;-85
2023/07/19 06:18:15;;;;;;;0.00;0.00;;;18.10;99.90;;;;;;5026915;28;20481;-85
2023/07/19 06:20:41;;;;;;;0.00;0.00;;;18.20;99.90;;;;;;5020101;28;20039;-86
2023/07/19 06:23:07;;;;;;;0.00;0.00;;;;;;;;;;5028257;28;20033;-86
2023/07/19 06:25:33;;;;;;;0.00;0.00;;;18.40;99.90;;;;;;5019250;28;20052;-88
2023/07/19 06:27:59;;;;;;;0.00;0.00;;;18.60;99.90;;;;;;5033832;28;20411;-85
2023/07/19 06:30:24;;;;;;;0.00;0.00;;;19.90;99.90;;;;;;5029687;28;20025;-86
2023/07/19 06:32:50;;;;;;;0.00;0.00;;;;;;;;;;5051659;28;20051;-86
2023/07/19 06:35:16;;;;;;;0.00;0.00;;;;;;;;;;5040802;28;20081;-89
2023/07/19 06:37:43;;;;;;;0.00;0.00;;;19.10;99.90;;;;;;5041819;28;20030;-89
2023/07/19 06:40:09;;;;;;;0.00;0.00;;;19.20;99.90;;;;;;5037563;28;20022;-88
2023/07/19 06:42:35;;;;;;;0.00;0.00;;;19.40;99.90;;;;;;5036547;28;20029;-88
2023/07/19 06:45:01;;;;;;;0.00;0.00;;;21.70;99.90;;;;;;5036539;28;20544;-89
2023/07/19 06:47:28;;;;;;;0.00;0.00;;;;;;;;;;5037939;28;20025;-89
2023/07/19 06:49:54;;;;;;;0.00;0.00;;;19.80;99.90;;;;;;5042649;28;20072;-89
2023/07/19 06:52:19;;;;;;;0.00;0.00;;;19.20;99.90;;;;;;5039093;28;20049;-88
2023/07/19 06:54:45;;;;;;;0.00;0.00;;;;;;;;;;5033415;28;20041;-87
2023/07/19 06:57:11;;;;;;;0.00;0.00;;;20.10;99.90;;;;;;5040668;28;20029;-87
2023/07/19 06:59:37;;;;;;;0.00;0.00;;;;;;;;;;5038953;28;20034;-86
2023/07/19 07:02:02;;;;;;;0.00;0.00;;;19.90;99.90;;;;;;5036419;28;20026;-88
2023/07/19 07:04:29;;;;;;;0.00;0.00;;;;;;;;;;5038065;28;20652;-88
2023/07/19 07:06:54;;;;;;;0.00;0.00;;;19.80;99.90;;;;;;5039068;28;20049;-88
2023/07/19 07:09:20;;;;;;;0.00;0.00;;;;;;;;;;5030427;28;20037;-88
2023/07/19 07:11:45;;;;;;;0.00;0.00;;;19.80;99.90;;;;;;5037767;28;20022;-88
2023/07/19 07:14:11;;;;;;;0.00;0.00;;;;;;;;;;5037365;28;20084;-85
2023/07/19 07:16:37;;;;;;;0.00;0.00;;;;;;;;;;5039146;28;20036;-86
2023/07/19 07:19:04;;;;;;;0.00;0.00;;;19.80;99.90;;;;;;5036241;28;20021;-87
2023/07/19 07:21:30;;;;;;;0.00;0.00;;;23.50;99.90;;;;;;5040820;28;20172;-87
2023/07/19 07:23:55;;;;;;;0.00;0.00;;;22.90;99.90;;;;;;5039365;28;20057;-86
2023/07/19 07:26:21;;;;;;;0.00;0.00;;;;;;;;;;5040499;28;20080;-88
2023/07/19 07:28:47;;;;;;;0.00;0.00;;;;;;;;;;5032044;28;20517;-87
2023/07/19 07:31:13;;;;;;;0.00;0.00;;;;;;;;;;5034519;28;20021;-87
2023/07/19 07:33:39;;;;;;;0.00;0.00;;;;;;;;;;5038862;28;20105;-87
2023/07/19 07:36:05;;;;;;;0.00;0.00;;;;;;;;;;5054456;28;20114;-87
2023/07/19 07:38:31;;;;;;;0.00;0.00;;;;;;;;;;5039290;28;20044;-87
2023/07/19 07:41:00;;;;;;;0.00;0.00;;;20.50;99.90;;;;;;5034618;28;20037;-86
2023/07/19 07:43:27;;;;;;;0.00;0.00;;;;;;;;;;5037108;28;20047;-87
2023/07/19 07:45:55;;;;;;;0.00;0.00;;;20.50;99.90;;;;;;5028564;28;20507;-87
2023/07/19 07:48:21;;;;;;;0.00;0.00;;;20.60;99.90;;;;;;5034534;28;20032;-86
2023/07/19 07:50:52;;;;;;;0.00;0.00;;;20.70;99.90;;;;;;5034119;28;20026;-88
2023/07/19 07:53:21;;;;;;;0.00;0.00;;;21.00;99.90;;;;;;5049676;28;20030;-87
2023/07/19 07:55:48;;;;;;;0.00;0.00;;;20.90;99.90;;;;;;5035179;28;20079;-87
2023/07/19 07:58:14;;;;;;;0.00;0.00;;;21.70;99.90;;;;;;5035331;28;20099;-89
2023/07/19 08:00:44;;;;;;;0.00;0.00;;;21.10;99.90;;;;;;5026974;28;20483;-86
2023/07/19 08:03:10;;;;;;;0.00;0.00;;;21.20;99.90;;;;;;5029602;28;22152;-87
2023/07/19 08:05:37;;;;;;;0.00;0.00;;;;;;;;;;5032518;28;20029;-88
2023/07/19 08:08:12;;;;;;;0.00;0.00;;;21.10;99.90;;;;;;5036665;28;20026;-87
2023/07/19 08:10:39;;;;;;;0.00;0.00;;;20.90;99.90;;;;;;5030613;28;20034;-86
2023/07/19 08:13:05;;;;;;;0.00;0.00;;;20.40;99.90;;;;;;5027631;28;20055;-87
2023/07/19 08:15:31;;;;;;;0.00;0.00;;;20.20;99.90;;;;;;5032187;28;20041;-86
2023/07/19 08:17:56;;;;;;;0.00;0.00;;;20.20;99.90;;;;;;5035310;28;20022;-89
2023/07/19 08:20:23;;;;;;;0.00;0.00;;;;;;;;;;5032904;28;20013;-87
2023/07/19 08:22:49;;;;;;;0.00;0.00;;;20.10;99.90;;;;;;5031566;28;20960;-87
2023/07/19 08:25:16;;;;;;;0.00;0.00;;;;;;;;;;5039340;28;20029;-88
2023/07/19 08:27:44;;;;;;;0.00;0.00;;;20.40;99.90;;;;;;5033434;28;20018;-87
2023/07/19 08:30:15;;;;;;;0.00;0.00;;;20.60;99.90;;;;;;5036598;28;20040;-86
2023/07/19 08:32:47;;;;;;;0.00;0.00;;;20.50;99.90;;;;;;5034843;28;20251;-87
2023/07/19 08:35:14;;;;;;;0.00;0.00;;;20.40;99.90;;;;;;5031734;28;20027;-87
2023/07/19 08:37:44;;;;;;;0.00;0.00;;;20.40;99.90;;;;;;5014265;28;20052;-88
2023/07/19 08:40:14;;;;;;;0.00;0.00;;;20.60;99.90;;;;;;5024248;28;20018;-86
2023/07/19 08:42:40;;;;;;;0.00;0.00;;;21.60;99.90;;;;;;5027663;28;20092;-86
2023/07/19 08:45:07;;;;;;;0.00;0.00;;;20.60;99.90;;;;;;5032060;28;20036;-87
2023/07/19 08:47:35;;;;;;;0.00;0.00;;;20.30;99.90;;;;;;5033143;28;20037;-87
2023/07/19 08:50:04;;;;;;;0.00;0.00;;;20.50;99.90;;;;;;5027537;28;20101;-87
2023/07/19 08:52:31;;;;;;;0.00;0.00;;;20.70;99.90;;;;;;5038428;28;20120;-87
2023/07/19 08:54:58;;;;;;;0.00;0.00;;;22.50;99.90;;;;;;5032459;28;20049;-87
2023/07/19 08:57:23;;;;;;;0.00;0.00;;;22.50;99.90;;;;;;5030171;28;20022;-86
2023/07/19 08:59:49;;;;;;;0.00;0.00;;;;;;;;;;5027783;28;20113;-86
2023/07/19 09:02:15;;;;;;;0.00;0.00;;;21.20;99.80;;;;;;5031600;28;20031;-86
2023/07/19 09:04:41;;;;;;;0.00;0.00;;;;;;;;;;5028420;28;20037;-87
2023/07/19 09:07:07;;;;;;;0.00;0.00;;;;;;;;;;5022754;28;20026;-86
2023/07/19 09:09:33;;;;;;;0.00;0.00;;;;;;;;;;5028115;28;20155;-86
2023/07/19 09:11:59;;;;;;;0.00;0.00;;;;;;;;;;5033825;28;20033;-88
2023/07/19 09:14:37;;;;;;;0.00;0.00;;;21.00;99.90;;;;;;5032956;28;20025;-87
2023/07/19 09:17:02;;;;;;;0.00;0.00;;;23.50;99.90;;;;;;5029244;28;20036;-87
2023/07/19 09:19:28;;;;;;;0.00;0.00;;;;;;;;;;5023929;28;20093;-85
2023/07/19 09:21:57;;;;;;;0.00;0.00;;;21.40;99.90;;;;;;5027014;28;20215;-86
2023/07/19 09:24:22;;;;;;;0.00;0.00;;;22.70;99.60;;;;;;5031754;28;20025;-87
2023/07/19 09:26:59;;;;;;;0.00;0.00;;;21.10;99.10;;;;;;5022362;28;20029;-86
2023/07/19 09:29:30;;;;;;;0.00;0.00;;;23.30;99.90;;;;;;5025892;28;20033;-86
2023/07/19 09:32:00;;;;;;;0.00;0.00;;;21.80;98.60;;;;;;5027246;28;20076;-86
2023/07/19 09:34:28;;;;;;;0.00;0.00;;;21.30;99.00;;;;;;5026258;28;20037;-88
2023/07/19 09:36:54;;;;;;;0.00;0.00;;;23.70;99.70;;;;;;5030700;28;20041;-87
2023/07/19 09:39:22;;;;;;;0.00;0.00;;;21.50;98.10;;;;;;5031722;28;20022;-88
2023/07/19 09:41:47;;;;;;;0.00;0.00;;;21.70;98.20;;;;;;5029157;28;20025;-88
2023/07/19 09:44:17;;;;;;;0.00;0.00;;;21.70;98.10;;;;;;5033452;28;20129;-88
2023/07/19 09:46:46;;;;;;;;;;;22.40;98.50;;;;;;5031788;28;20026;-87
2023/07/19 09:49:13;;;;;;;0.00;0.00;;;;;;;;;;5038290;28;19935;-87
2023/07/19 09:51:41;;;;;;;0.00;0.00;;;21.80;97.90;;;;;;5038112;28;20037;-89
2023/07/19 09:54:09;;;;;;;0.00;0.00;;;21.90;97.30;;;;;;5025502;28;20482;-88
2023/07/19 09:56:35;;;;;;;0.00;0.00;;;21.90;97.10;;;;;;5024718;28;20022;-88
2023/07/19 09:59:03;;;;;;;0.00;0.00;;;22.20;96.60;;;;;;5027596;28;20513;-88
2023/07/19 10:01:29;;;;;;;0.00;0.00;;;22.10;96.80;;;;;;5034372;28;20113;-87
2023/07/19 10:03:58;;;;;;;0.00;0.00;;;22.10;96.40;;;;;;5028332;28;20025;-87
2023/07/19 10:06:29;;;;;;;0.00;0.00;;;22.90;97.40;;;;;;5033322;28;20025;-88
2023/07/19 10:09:23;;;;;;;0.00;0.00;;;22.60;96.60;;;;;;5028903;28;20474;-86
2023/07/19 10:11:51;;;;;;;0.00;0.00;;;22.80;97.30;;;;;;5021789;28;20057;-83
2023/07/19 10:14:25;;;;;;;0.00;0.00;;;22.70;97.40;;;;;;5029434;28;20471;-85
2023/07/19 10:16:58;;;;;;;0.00;0.00;;;22.80;96.20;;;;;;5030584;28;20025;-86
2023/07/19 10:19:24;;;;;;;0.00;0.00;;;23.20;94.90;;;;;;5026116;28;20022;-88
2023/07/19 10:22:06;;;;;;;0.00;0.00;;;23.10;96.10;;;;;;5028395;28;20117;-87
2023/07/19 10:24:34;;;;;;;0.00;0.00;;;23.10;95.70;;;;;;5026899;28;20394;-87
2023/07/19 10:27:01;;;;;;;0.00;0.00;;;23.00;95.20;;;;;;5029724;28;20541;-87
2023/07/19 10:29:41;;;;;;;0.00;0.00;;;24.30;96.80;;;;;;5030319;28;20035;-87
2023/07/19 10:32:07;;;;;;;;;;;25.00;95.80;;;;;;5032958;28;20498;-87
2023/07/19 10:34:33;;;;;;;0.00;0.00;;;;;;;;;;5038040;28;19913;-88
2023/07/19 10:37:06;;;;;;;0.00;0.00;;;22.90;95.60;;;;;;5031653;28;20466;-88
2023/07/19 10:39:32;;;;;;;0.00;0.00;;;23.30;95.20;;;;;;5032039;28;20056;-87
2023/07/19 10:42:01;;;;;;;0.00;0.00;;;23.70;95.30;;;;;;5031952;28;20029;-88
2023/07/19 10:44:27;;;;;;;0.00;0.00;;;24.10;96.60;;;;;;5033525;28;20076;-90
2023/07/19 10:46:54;;;;;;;0.00;0.00;;;23.20;96.00;;;;;;5030536;28;20034;-89
2023/07/19 10:49:22;;;;;;;0.00;0.00;;;24.40;96.10;;;;;;5031348;28;20079;-86
2023/07/19 10:51:55;;;;;;;0.00;0.00;;;24.60;95.40;;;;;;5031078;28;20052;-86
2023/07/19 10:54:20;;;;;;;0.00;0.00;;;24.00;94.90;;;;;;5030788;28;20029;-86
2023/07/19 10:56:50;;;;;;;0.00;0.00;;;24.20;94.10;;;;;;5029686;28;20548;-85
2023/07/19 10:59:16;;;;;;;0.00;0.00;;;;;;;;;;5033097;28;20018;-88
2023/07/19 11:01:43;;;;;;;0.00;0.00;;;24.50;93.60;;;;;;5030034;28;20113;-88
2023/07/19 11:04:09;;;;;;;0.00;0.00;;;;;;;;;;5033305;28;20021;-86
2023/07/19 11:06:37;;;;;;;0.00;0.00;;;24.60;93.30;;;;;;5037637;28;20033;-86
2023/07/19 11:09:04;;;;;;;0.00;0.00;;;24.80;92.60;;;;;;5033290;28;20053;-86
2023/07/19 11:11:32;;;;;;;0.00;0.00;;;24.80;92.90;;;;;;5034791;28;20025;-87
2023/07/19 11:13:57;;;;;;;0.00;0.00;;;26.90;94.00;;;;;;5034073;28;20041;-88
2023/07/19 11:16:26;;;;;;;0.00;0.00;;;24.80;93.40;;;;;;5034071;28;20036;-85
2023/07/19 11:18:53;;;;;;;0.00;0.00;;;24.80;93.50;;;;;;5031479;28;20049;-86
2023/07/19 11:21:26;;;;;;;0.00;0.00;;;24.80;93.40;;;;;;5036943;28;20499;-88
2023/07/19 11:23:53;;;;;;;0.00;0.00;;;24.60;92.30;;;;;;5030459;28;20052;-88
2023/07/19 11:26:18;;;;;;;0.00;0.00;;;27.00;93.30;;;;;;5036232;28;20112;-89
2023/07/19 11:28:47;;;;;;;0.00;0.00;;;24.60;94.00;;;;;;5033018;28;20175;-88
2023/07/19 11:31:32;;;;;;;0.00;0.00;;;24.00;92.20;;;;;;5035424;28;20104;-88
2023/07/19 11:34:07;;;;;;;0.00;0.00;;;23.70;92.90;;;;;;5034425;28;20562;-85
2023/07/19 11:36:34;;;;;;;0.00;0.00;;;23.80;93.20;;;;;;5032416;28;20030;-88
2023/07/19 11:39:00;;;;;;;0.00;0.00;;;23.80;93.40;;;;;;5028610;28;20030;-86
2023/07/19 11:41:25;;;;;;;0.00;0.00;;;24.30;93.70;;;;;;5032772;28;20025;-86
2023/07/19 11:43:51;;;;;;;0.00;0.00;;;;;;;;;;5031546;28;20564;-88
2023/07/19 11:46:17;;;;;;;0.00;0.00;;;23.60;93.20;;;;;;5030050;28;20033;-87
2023/07/19 11:48:43;;;;;;;0.00;0.00;;;23.60;94.20;;;;;;5039955;28;20044;-87
2023/07/19 11:51:09;;;;;;;0.00;0.00;;;24.00;94.70;;;;;;5034253;28;20030;-88
2023/07/19 11:53:34;;;;;;;0.00;0.00;;;25.20;93.60;;;;;;5030813;28;20025;-87
2023/07/19 11:56:00;;;;;;;0.00;0.00;;;25.00;93.60;;;;;;5037204;28;20028;-86
2023/07/19 11:58:26;;;;;;;0.00;0.00;;;24.30;93.90;;;;;;5035281;28;20013;-89
2023/07/19 12:00:51;;;;;;;0.00;0.00;;;23.70;93.40;;;;;;5036639;28;20053;-89
2023/07/19 12:03:17;;;;;;;0.00;0.00;;;;;;;;;;5031373;28;20071;-86
2023/07/19 12:05:43;;;;;;;0.00;0.00;;;24.20;94.00;;;;;;5034698;28;20036;-87
2023/07/19 12:08:09;;;;;;;0.00;0.00;;;24.20;93.80;;;;;;5032326;28;20018;-88
2023/07/19 12:10:36;;;;;;;0.00;0.00;;;24.30;93.70;;;;;;5031099;28;20064;-88
2023/07/19 12:13:02;;;;;;;0.00;0.00;;;;;;;;;;5033716;28;20037;-85
2023/07/19 12:15:28;;;;;;;0.00;0.00;;;24.40;93.60;;;;;;5034090;28;20021;-87
2023/07/19 12:17:55;;;;;;;0.00;0.00;;;;;;;;;;5030214;28;20018;-88
2023/07/19 12:20:21;;;;;;;0.00;0.00;;;;;;;;;;5032750;28;20021;-88
2023/07/19 12:22:48;;;;;;;0.00;0.00;;;;;;;;;;5036231;28;20021;-85
2023/07/19 12:25:15;;;;;;;0.00;0.00;;;;;;;;;;5037642;28;20030;-89
2023/07/19 12:27:41;;;;;;;0.00;0.00;;;24.40;92.40;;;;;;5035979;28;20030;-88
2023/07/19 12:30:09;;;;;;;0.00;0.00;;;24.50;93.00;;;;;;5030965;28;20087;-84
2023/07/19 12:32:35;;;;;;;0.00;0.00;;;;;;;;;;5041538;28;20390;-85
2023/07/19 12:35:01;;;;;;;0.00;0.00;;;25.00;93.30;;;;;;5036878;28;20033;-87
2023/07/19 12:37:27;;;;;;;0.00;0.00;;;25.20;94.90;;;;;;5036082;28;20045;-88
2023/07/19 12:39:52;;;;;;;0.00;0.00;;;25.40;92.50;;;;;;5026323;28;20021;-87
2023/07/19 12:42:18;;;;;;;0.00;0.00;;;25.90;93.80;;;;;;5034123;28;20021;-86
2023/07/19 12:44:44;;;;;;;0.00;0.00;;;;;;;;;;5035765;28;20026;-88
2023/07/19 12:47:10;;;;;;;0.00;0.00;;;24.80;92.60;;;;;;5028938;28;20082;-88
2023/07/19 12:49:35;;;;;;;0.00;0.00;;;25.90;93.40;;;;;;5031398;28;20466;-87
2023/07/19 12:52:02;;;;;;;0.00;0.00;;;25.00;93.70;;;;;;5035069;28;20036;-87
2023/07/19 12:54:28;;;;;;;0.00;0.00;;;25.20;93.80;;;;;;5035076;28;20112;-87
2023/07/19 12:56:54;;;;;;;0.00;0.00;;;;;;;;;;5035549;28;20112;-86
2023/07/19 12:59:20;;;;;;;0.00;0.00;;;;;;;;;;5039214;28;20057;-86
2023/07/19 13:01:46;;;;;;;0.00;0.00;;;25.10;93.30;;;;;;5032823;28;20025;-88
2023/07/19 13:04:12;;;;;;;0.00;0.00;;;25.50;93.40;;;;;;5036379;28;20029;-86
2023/07/19 13:06:38;;;;;;;0.00;0.00;;;25.20;92.60;;;;;;5037883;28;20029;-86
2023/07/19 13:09:06;;;;;;;0.00;0.00;;;25.40;94.00;;;;;;5037708;28;20113;-86
2023/07/19 13:11:41;;;;;;;0.00;0.00;;;26.20;93.70;;;;;;5038077;28;20053;-86
2023/07/19 13:14:07;;;;;;;0.00;0.00;;;;;;;;;;5038319;28;20029;-84
2023/07/19 13:16:33;;;;;;;0.00;0.00;;;;;;;;;;5030545;28;20028;-87
2023/07/19 13:24:08;;;;;;;0.00;0.00;;;26.00;94.20;;;;;;5072070;28;20930;-85
2023/07/19 13:26:34;;;;;;;0.00;0.00;;;;;;;;;;5056780;28;20055;-84